sensor_id;sensor_type;location;lat;lon;timestamp;P1;durP1;ratioP1;P2;durP2;ratioP2
12024;SDS011;6073;53.230;10.444;2023-07-13T00:01:14;4.80;;;4.15;;
12024;SDS011;6073;53.230;10.444;2023-07-13T00:03:41;5.60;;;4.40;;
12024;SDS011;6073;53.230;10.444;2023-07-13T00:06:07;5.05;;;4.43;;
12024;SDS011;6073;53.230;10.444;2023-07-13T00:08:33;8.40;;;4.95;;
12024;SDS011;6073;53.230;10.444;2023-07-13T00:11:03;5.85;;;4.63;;
12024;SDS011;6073;53.230;10.444;2023-07-13T00:13:29;4.10;;;3.80;;
12024;SDS011;6073;53.230;10.444;2023-07-13T00:15:57;8.02;;;4.55;;
12024;SDS011;6073;53.230;10.444;2023-07-13T00:18:23;4.60;;;4.20;;
12024;SDS011;6073;53.230;10.444;2023-07-13T00:20:49;5.32;;;4.65;;
12024;SDS011;6073;53.230;10.444;2023-07-13T00:23:15;5.18;;;4.28;;
12024;SDS011;6073;53.230;10.444;2023-07-13T00:25:42;6.45;;;4.40;;
12024;SDS011;6073;53.230;10.444;2023-07-13T00:28:07;5.32;;;4.10;;
12024;SDS011;6073;53.230;10.444;2023-07-13T00:30:33;5.38;;;4.25;;
12024;SDS011;6073;53.230;10.444;2023-07-13T00:32:58;4.82;;;3.95;;
12024;SDS011;6073;53.230;10.444;2023-07-13T00:35:26;4.88;;;4.25;;
12024;SDS011;6073;53.230;10.444;2023-07-13T00:37:51;4.60;;;4.20;;
12024;SDS011;6073;53.230;10.444;2023-07-13T00:40:17;4.60;;;4.10;;
12024;SDS011;6073;53.230;10.444;2023-07-13T00:42:43;5.25;;;4.10;;
12024;SDS011;6073;53.230;10.444;2023-07-13T00:47:37;5.22;;;4.30;;
12024;SDS011;6073;53.230;10.444;2023-07-13T00:50:04;4.38;;;3.92;;
12024;SDS011;6073;53.230;10.444;2023-07-13T00:52:40;5.28;;;4.03;;
12024;SDS011;6073;53.230;10.444;2023-07-13T00:55:09;5.35;;;4.20;;
12024;SDS011;6073;53.230;10.444;2023-07-13T00:57:37;4.57;;;3.85;;
12024;SDS011;6073;53.230;10.444;2023-07-13T01:00:04;6.10;;;4.63;;
12024;SDS011;6073;53.230;10.444;2023-07-13T01:02:35;4.47;;;3.80;;
12024;SDS011;6073;53.230;10.444;2023-07-13T01:05:08;5.00;;;4.53;;
12024;SDS011;6073;53.230;10.444;2023-07-13T01:07:42;5.35;;;4.15;;
12024;SDS011;6073;53.230;10.444;2023-07-13T01:10:09;5.10;;;4.22;;
12024;SDS011;6073;53.230;10.444;2023-07-13T01:12:36;5.03;;;4.45;;
12024;SDS011;6073;53.230;10.444;2023-07-13T01:15:02;5.75;;;4.00;;
12024;SDS011;6073;53.230;10.444;2023-07-13T01:17:29;7.15;;;4.40;;
12024;SDS011;6073;53.230;10.444;2023-07-13T01:19:56;4.78;;;4.35;;
12024;SDS011;6073;53.230;10.444;2023-07-13T01:22:21;4.72;;;4.20;;
12024;SDS011;6073;53.230;10.444;2023-07-13T01:24:50;5.40;;;4.47;;
12024;SDS011;6073;53.230;10.444;2023-07-13T01:27:20;4.72;;;4.20;;
12024;SDS011;6073;53.230;10.444;2023-07-13T01:29:48;9.25;;;5.68;;
12024;SDS011;6073;53.230;10.444;2023-07-13T01:32:23;5.13;;;4.63;;
12024;SDS011;6073;53.230;10.444;2023-07-13T01:34:50;5.28;;;4.78;;
12024;SDS011;6073;53.230;10.444;2023-07-13T01:37:19;6.95;;;4.20;;
12024;SDS011;6073;53.230;10.444;2023-07-13T01:39:45;9.32;;;4.78;;
12024;SDS011;6073;53.230;10.444;2023-07-13T01:42:11;7.00;;;4.70;;
12024;SDS011;6073;53.230;10.444;2023-07-13T01:44:37;6.82;;;5.03;;
12024;SDS011;6073;53.230;10.444;2023-07-13T01:47:03;7.13;;;4.65;;
12024;SDS011;6073;53.230;10.444;2023-07-13T01:49:29;5.47;;;4.97;;
12024;SDS011;6073;53.230;10.444;2023-07-13T01:51:54;7.45;;;4.75;;
12024;SDS011;6073;53.230;10.444;2023-07-13T01:54:20;5.93;;;4.95;;
12024;SDS011;6073;53.230;10.444;2023-07-13T01:56:45;5.10;;;4.60;;
12024;SDS011;6073;53.230;10.444;2023-07-13T01:59:11;6.93;;;5.05;;
12024;SDS011;6073;53.230;10.444;2023-07-13T02:01:36;5.35;;;4.82;;
12024;SDS011;6073;53.230;10.444;2023-07-13T02:04:02;6.72;;;5.15;;
12024;SDS011;6073;53.230;10.444;2023-07-13T02:06:28;8.45;;;4.95;;
12024;SDS011;6073;53.230;10.444;2023-07-13T02:08:54;5.97;;;5.10;;
12024;SDS011;6073;53.230;10.444;2023-07-13T02:11:20;7.25;;;5.50;;
12024;SDS011;6073;53.230;10.444;2023-07-13T02:13:45;6.22;;;5.63;;
12024;SDS011;6073;53.230;10.444;2023-07-13T02:16:11;6.72;;;5.25;;
12024;SDS011;6073;53.230;10.444;2023-07-13T02:18:37;7.20;;;4.80;;
12024;SDS011;6073;53.230;10.444;2023-07-13T02:21:02;5.65;;;4.90;;
12024;SDS011;6073;53.230;10.444;2023-07-13T02:23:28;6.03;;;5.07;;
12024;SDS011;6073;53.230;10.444;2023-07-13T02:25:55;6.80;;;4.97;;
12024;SDS011;6073;53.230;10.444;2023-07-13T02:28:21;5.78;;;5.00;;
12024;SDS011;6073;53.230;10.444;2023-07-13T02:30:47;6.20;;;5.15;;
12024;SDS011;6073;53.230;10.444;2023-07-13T02:33:12;5.97;;;5.18;;
12024;SDS011;6073;53.230;10.444;2023-07-13T02:35:38;6.25;;;5.28;;
12024;SDS011;6073;53.230;10.444;2023-07-13T02:38:04;5.55;;;4.95;;
12024;SDS011;6073;53.230;10.444;2023-07-13T02:40:29;5.45;;;4.75;;
12024;SDS011;6073;53.230;10.444;2023-07-13T02:42:58;6.25;;;5.55;;
12024;SDS011;6073;53.230;10.444;2023-07-13T02:45:23;6.43;;;4.78;;
12024;SDS011;6073;53.230;10.444;2023-07-13T02:47:49;5.82;;;4.97;;
12024;SDS011;6073;53.230;10.444;2023-07-13T02:50:14;8.30;;;5.28;;
12024;SDS011;6073;53.230;10.444;2023-07-13T02:52:40;5.57;;;5.07;;
12024;SDS011;6073;53.230;10.444;2023-07-13T02:55:06;5.63;;;4.68;;
12024;SDS011;6073;53.230;10.444;2023-07-13T02:57:31;6.25;;;4.40;;
12024;SDS011;6073;53.230;10.444;2023-07-13T02:59:57;6.65;;;5.53;;
12024;SDS011;6073;53.230;10.444;2023-07-13T03:02:24;5.25;;;4.75;;
12024;SDS011;6073;53.230;10.444;2023-07-13T03:04:50;6.97;;;5.75;;
12024;SDS011;6073;53.230;10.444;2023-07-13T03:07:15;7.05;;;5.13;;
12024;SDS011;6073;53.230;10.444;2023-07-13T03:09:41;6.30;;;5.55;;
12024;SDS011;6073;53.230;10.444;2023-07-13T03:12:06;6.18;;;5.55;;
12024;SDS011;6073;53.230;10.444;2023-07-13T03:14:32;9.70;;;5.90;;
12024;SDS011;6073;53.230;10.444;2023-07-13T03:16:58;5.85;;;5.28;;
12024;SDS011;6073;53.230;10.444;2023-07-13T03:19:23;6.47;;;5.22;;
12024;SDS011;6073;53.230;10.444;2023-07-13T03:21:49;7.40;;;5.50;;
12024;SDS011;6073;53.230;10.444;2023-07-13T03:24:15;7.65;;;5.90;;
12024;SDS011;6073;53.230;10.444;2023-07-13T03:26:40;8.52;;;5.47;;
12024;SDS011;6073;53.230;10.444;2023-07-13T03:29:06;5.70;;;5.15;;
12024;SDS011;6073;53.230;10.444;2023-07-13T03:31:32;5.03;;;4.53;;
12024;SDS011;6073;53.230;10.444;2023-07-13T03:34:00;5.15;;;4.65;;
12024;SDS011;6073;53.230;10.444;2023-07-13T03:36:27;6.07;;;5.22;;
12024;SDS011;6073;53.230;10.444;2023-07-13T03:38:55;5.40;;;4.85;;
12024;SDS011;6073;53.230;10.444;2023-07-13T03:41:25;5.60;;;5.10;;
12024;SDS011;6073;53.230;10.444;2023-07-13T03:43:50;5.97;;;5.15;;
12024;SDS011;6073;53.230;10.444;2023-07-13T03:46:16;6.63;;;4.78;;
12024;SDS011;6073;53.230;10.444;2023-07-13T03:48:43;6.28;;;5.68;;
12024;SDS011;6073;53.230;10.444;2023-07-13T03:51:10;6.38;;;5.53;;
12024;SDS011;6073;53.230;10.444;2023-07-13T03:53:38;8.20;;;5.30;;
12024;SDS011;6073;53.230;10.444;2023-07-13T03:56:06;5.95;;;5.20;;
12024;SDS011;6073;53.230;10.444;2023-07-13T03:58:33;5.38;;;4.70;;
12024;SDS011;6073;53.230;10.444;2023-07-13T04:01:00;6.30;;;5.30;;
12024;SDS011;6073;53.230;10.444;2023-07-13T04:03:27;9.07;;;5.40;;
12024;SDS011;6073;53.230;10.444;2023-07-13T04:05:56;5.78;;;5.20;;
12024;SDS011;6073;53.230;10.444;2023-07-13T04:08:29;5.60;;;5.10;;
12024;SDS011;6073;53.230;10.444;2023-07-13T04:10:56;8.00;;;5.38;;
12024;SDS011;6073;53.230;10.444;2023-07-13T04:13:23;6.05;;;4.85;;
12024;SDS011;6073;53.230;10.444;2023-07-13T04:15:49;9.10;;;5.90;;
12024;SDS011;6073;53.230;10.444;2023-07-13T04:18:15;5.63;;;5.03;;
12024;SDS011;6073;53.230;10.444;2023-07-13T04:20:40;7.18;;;5.07;;
12024;SDS011;6073;53.230;10.444;2023-07-13T04:23:06;5.97;;;5.05;;
12024;SDS011;6073;53.230;10.444;2023-07-13T04:25:31;7.38;;;5.80;;
12024;SDS011;6073;53.230;10.444;2023-07-13T04:27:57;7.50;;;5.63;;
12024;SDS011;6073;53.230;10.444;2023-07-13T04:30:22;5.93;;;5.40;;
12024;SDS011;6073;53.230;10.444;2023-07-13T04:32:50;6.80;;;4.85;;
12024;SDS011;6073;53.230;10.444;2023-07-13T04:35:17;7.78;;;5.93;;
12024;SDS011;6073;53.230;10.444;2023-07-13T04:37:45;6.38;;;4.93;;
12024;SDS011;6073;53.230;10.444;2023-07-13T04:40:12;5.65;;;4.55;;
12024;SDS011;6073;53.230;10.444;2023-07-13T04:42:38;5.70;;;4.80;;
12024;SDS011;6073;53.230;10.444;2023-07-13T04:45:04;5.30;;;4.80;;
12024;SDS011;6073;53.230;10.444;2023-07-13T04:47:31;5.35;;;4.55;;
12024;SDS011;6073;53.230;10.444;2023-07-13T04:49:57;6.50;;;4.57;;
12024;SDS011;6073;53.230;10.444;2023-07-13T04:52:23;6.55;;;4.45;;
12024;SDS011;6073;53.230;10.444;2023-07-13T04:54:49;6.03;;;4.45;;
12024;SDS011;6073;53.230;10.444;2023-07-13T04:57:14;5.47;;;3.95;;
12024;SDS011;6073;53.230;10.444;2023-07-13T04:59:40;5.85;;;4.13;;
12024;SDS011;6073;53.230;10.444;2023-07-13T05:02:05;6.85;;;4.30;;
12024;SDS011;6073;53.230;10.444;2023-07-13T05:04:31;6.07;;;3.45;;
12024;SDS011;6073;53.230;10.444;2023-07-13T05:06:56;4.43;;;3.35;;
12024;SDS011;6073;53.230;10.444;2023-07-13T05:09:22;7.55;;;3.40;;
12024;SDS011;6073;53.230;10.444;2023-07-13T05:11:47;5.78;;;3.38;;
12024;SDS011;6073;53.230;10.444;2023-07-13T05:14:13;4.68;;;3.22;;
12024;SDS011;6073;53.230;10.444;2023-07-13T05:16:40;6.65;;;3.17;;
12024;SDS011;6073;53.230;10.444;2023-07-13T05:19:06;9.75;;;3.30;;
12024;SDS011;6073;53.230;10.444;2023-07-13T05:21:31;7.82;;;2.97;;
12024;SDS011;6073;53.230;10.444;2023-07-13T05:23:57;6.82;;;3.55;;
12024;SDS011;6073;53.230;10.444;2023-07-13T05:26:22;5.03;;;2.65;;
12024;SDS011;6073;53.230;10.444;2023-07-13T05:28:48;6.05;;;2.58;;
12024;SDS011;6073;53.230;10.444;2023-07-13T05:31:13;7.63;;;2.90;;
12024;SDS011;6073;53.230;10.444;2023-07-13T05:33:39;5.38;;;2.75;;
12024;SDS011;6073;53.230;10.444;2023-07-13T05:36:05;3.33;;;2.17;;
12024;SDS011;6073;53.230;10.444;2023-07-13T05:38:32;6.55;;;2.40;;
12024;SDS011;6073;53.230;10.444;2023-07-13T05:40:57;5.55;;;2.53;;
12024;SDS011;6073;53.230;10.444;2023-07-13T05:43:23;6.00;;;2.63;;
12024;SDS011;6073;53.230;10.444;2023-07-13T05:45:49;4.85;;;2.25;;
12024;SDS011;6073;53.230;10.444;2023-07-13T05:48:18;4.63;;;2.50;;
12024;SDS011;6073;53.230;10.444;2023-07-13T05:50:43;7.35;;;2.50;;
12024;SDS011;6073;53.230;10.444;2023-07-13T05:53:09;5.35;;;2.40;;
12024;SDS011;6073;53.230;10.444;2023-07-13T05:55:34;4.10;;;2.70;;
12024;SDS011;6073;53.230;10.444;2023-07-13T05:58:00;5.15;;;2.10;;
12024;SDS011;6073;53.230;10.444;2023-07-13T06:00:26;3.65;;;2.17;;
12024;SDS011;6073;53.230;10.444;2023-07-13T06:02:51;6.15;;;2.60;;
12024;SDS011;6073;53.230;10.444;2023-07-13T06:05:17;4.80;;;2.22;;
12024;SDS011;6073;53.230;10.444;2023-07-13T06:07:43;9.20;;;2.70;;
12024;SDS011;6073;53.230;10.444;2023-07-13T06:10:09;4.63;;;2.25;;
12024;SDS011;6073;53.230;10.444;2023-07-13T06:12:34;4.32;;;2.25;;
12024;SDS011;6073;53.230;10.444;2023-07-13T06:15:00;7.40;;;2.60;;
12024;SDS011;6073;53.230;10.444;2023-07-13T06:17:26;4.82;;;2.55;;
12024;SDS011;6073;53.230;10.444;2023-07-13T06:19:51;4.57;;;2.38;;
12024;SDS011;6073;53.230;10.444;2023-07-13T06:22:17;8.25;;;2.63;;
12024;SDS011;6073;53.230;10.444;2023-07-13T06:24:42;7.97;;;2.33;;
12024;SDS011;6073;53.230;10.444;2023-07-13T06:27:08;7.13;;;2.40;;
12024;SDS011;6073;53.230;10.444;2023-07-13T06:29:33;6.28;;;2.40;;
12024;SDS011;6073;53.230;10.444;2023-07-13T06:31:59;4.63;;;2.15;;
12024;SDS011;6073;53.230;10.444;2023-07-13T06:34:24;3.88;;;2.22;;
12024;SDS011;6073;53.230;10.444;2023-07-13T06:36:50;7.10;;;2.40;;
12024;SDS011;6073;53.230;10.444;2023-07-13T06:39:16;4.78;;;2.20;;
12024;SDS011;6073;53.230;10.444;2023-07-13T06:41:41;5.93;;;2.50;;
12024;SDS011;6073;53.230;10.444;2023-07-13T06:44:07;7.30;;;2.78;;
12024;SDS011;6073;53.230;10.444;2023-07-13T06:46:32;5.35;;;2.72;;
12024;SDS011;6073;53.230;10.444;2023-07-13T06:48:58;5.40;;;2.30;;
12024;SDS011;6073;53.230;10.444;2023-07-13T06:51:23;6.10;;;2.50;;
12024;SDS011;6073;53.230;10.444;2023-07-13T06:53:50;4.80;;;2.53;;
12024;SDS011;6073;53.230;10.444;2023-07-13T06:56:16;7.45;;;2.60;;
12024;SDS011;6073;53.230;10.444;2023-07-13T06:58:42;5.18;;;2.33;;
12024;SDS011;6073;53.230;10.444;2023-07-13T07:01:08;6.28;;;2.88;;
12024;SDS011;6073;53.230;10.444;2023-07-13T07:03:34;9.68;;;2.90;;
12024;SDS011;6073;53.230;10.444;2023-07-13T07:06:00;7.18;;;2.65;;
12024;SDS011;6073;53.230;10.444;2023-07-13T07:08:27;4.22;;;2.38;;
12024;SDS011;6073;53.230;10.444;2023-07-13T07:10:52;7.63;;;2.60;;
12024;SDS011;6073;53.230;10.444;2023-07-13T07:13:19;6.68;;;2.70;;
12024;SDS011;6073;53.230;10.444;2023-07-13T07:15:45;8.48;;;2.50;;
12024;SDS011;6073;53.230;10.444;2023-07-13T07:18:10;6.20;;;2.63;;
12024;SDS011;6073;53.230;10.444;2023-07-13T07:20:36;9.95;;;3.30;;
12024;SDS011;6073;53.230;10.444;2023-07-13T07:23:01;9.02;;;3.15;;
12024;SDS011;6073;53.230;10.444;2023-07-13T07:25:27;7.97;;;2.85;;
12024;SDS011;6073;53.230;10.444;2023-07-13T07:27:56;8.65;;;2.50;;
12024;SDS011;6073;53.230;10.444;2023-07-13T07:30:22;4.82;;;2.58;;
12024;SDS011;6073;53.230;10.444;2023-07-13T07:32:48;8.88;;;2.83;;
12024;SDS011;6073;53.230;10.444;2023-07-13T07:35:13;6.43;;;3.10;;
12024;SDS011;6073;53.230;10.444;2023-07-13T07:37:39;6.93;;;2.63;;
12024;SDS011;6073;53.230;10.444;2023-07-13T07:40:04;8.77;;;3.28;;
12024;SDS011;6073;53.230;10.444;2023-07-13T07:42:30;6.20;;;2.55;;
12024;SDS011;6073;53.230;10.444;2023-07-13T07:44:56;7.13;;;2.80;;
12024;SDS011;6073;53.230;10.444;2023-07-13T07:47:21;8.23;;;2.50;;
12024;SDS011;6073;53.230;10.444;2023-07-13T07:49:49;7.93;;;2.50;;
12024;SDS011;6073;53.230;10.444;2023-07-13T07:52:14;5.95;;;3.15;;
12024;SDS011;6073;53.230;10.444;2023-07-13T07:54:40;6.80;;;2.97;;
12024;SDS011;6073;53.230;10.444;2023-07-13T07:57:05;6.45;;;2.80;;
12024;SDS011;6073;53.230;10.444;2023-07-13T07:59:31;9.75;;;3.00;;
12024;SDS011;6073;53.230;10.444;2023-07-13T08:01:57;7.93;;;2.78;;
12024;SDS011;6073;53.230;10.444;2023-07-13T08:04:22;9.82;;;2.85;;
12024;SDS011;6073;53.230;10.444;2023-07-13T08:06:48;7.63;;;2.75;;
12024;SDS011;6073;53.230;10.444;2023-07-13T08:09:14;7.53;;;2.60;;
12024;SDS011;6073;53.230;10.444;2023-07-13T08:11:39;6.30;;;2.70;;
12024;SDS011;6073;53.230;10.444;2023-07-13T08:14:05;5.10;;;2.55;;
12024;SDS011;6073;53.230;10.444;2023-07-13T08:16:30;9.60;;;2.78;;
12024;SDS011;6073;53.230;10.444;2023-07-13T08:18:57;6.60;;;2.35;;
12024;SDS011;6073;53.230;10.444;2023-07-13T08:21:23;9.50;;;3.22;;
12024;SDS011;6073;53.230;10.444;2023-07-13T08:23:48;7.50;;;2.80;;
12024;SDS011;6073;53.230;10.444;2023-07-13T08:26:14;6.32;;;2.45;;
12024;SDS011;6073;53.230;10.444;2023-07-13T08:28:40;6.43;;;2.60;;
12024;SDS011;6073;53.230;10.444;2023-07-13T08:31:06;7.30;;;2.72;;
12024;SDS011;6073;53.230;10.444;2023-07-13T08:33:33;8.48;;;2.80;;
12024;SDS011;6073;53.230;10.444;2023-07-13T08:36:00;8.95;;;2.38;;
12024;SDS011;6073;53.230;10.444;2023-07-13T08:38:26;5.88;;;2.20;;
12024;SDS011;6073;53.230;10.444;2023-07-13T08:40:55;6.22;;;2.20;;
12024;SDS011;6073;53.230;10.444;2023-07-13T08:43:32;7.47;;;2.30;;
12024;SDS011;6073;53.230;10.444;2023-07-13T08:46:13;4.88;;;2.38;;
12024;SDS011;6073;53.230;10.444;2023-07-13T08:48:51;6.93;;;2.13;;
12024;SDS011;6073;53.230;10.444;2023-07-13T08:53:58;3.67;;;2.17;;
12024;SDS011;6073;53.230;10.444;2023-07-13T08:56:27;5.60;;;2.22;;
12024;SDS011;6073;53.230;10.444;2023-07-13T08:58:58;7.03;;;2.28;;
12024;SDS011;6073;53.230;10.444;2023-07-13T09:04:23;7.00;;;2.38;;
12024;SDS011;6073;53.230;10.444;2023-07-13T09:14:43;8.13;;;2.85;;
12024;SDS011;6073;53.230;10.444;2023-07-13T09:17:35;7.00;;;2.83;;
12024;SDS011;6073;53.230;10.444;2023-07-13T09:20:14;8.10;;;2.35;;
12024;SDS011;6073;53.230;10.444;2023-07-13T09:22:48;6.05;;;2.40;;
12024;SDS011;6073;53.230;10.444;2023-07-13T09:25:24;4.05;;;2.13;;
12024;SDS011;6073;53.230;10.444;2023-07-13T09:27:58;6.22;;;2.30;;
12024;SDS011;6073;53.230;10.444;2023-07-13T09:30:36;5.47;;;2.30;;
12024;SDS011;6073;53.230;10.444;2023-07-13T09:33:11;8.18;;;2.30;;
12024;SDS011;6073;53.230;10.444;2023-07-13T09:35:37;5.95;;;2.17;;
12024;SDS011;6073;53.230;10.444;2023-07-13T09:38:24;5.40;;;2.17;;
12024;SDS011;6073;53.230;10.444;2023-07-13T09:40:59;5.00;;;2.03;;
12024;SDS011;6073;53.230;10.444;2023-07-13T09:46:40;6.90;;;2.10;;
12024;SDS011;6073;53.230;10.444;2023-07-13T09:49:10;6.10;;;2.15;;
12024;SDS011;6073;53.230;10.444;2023-07-13T09:51:37;5.53;;;2.10;;
12024;SDS011;6073;53.230;10.444;2023-07-13T09:54:17;4.78;;;1.83;;
12024;SDS011;6073;53.230;10.444;2023-07-13T09:56:46;4.40;;;2.05;;
12024;SDS011;6073;53.230;10.444;2023-07-13T09:59:19;4.18;;;1.88;;
12024;SDS011;6073;53.230;10.444;2023-07-13T10:01:46;6.57;;;2.22;;
12024;SDS011;6073;53.230;10.444;2023-07-13T10:04:14;3.25;;;2.17;;
12024;SDS011;6073;53.230;10.444;2023-07-13T10:06:43;4.10;;;2.33;;
12024;SDS011;6073;53.230;10.444;2023-07-13T10:09:09;5.47;;;2.63;;
12024;SDS011;6073;53.230;10.444;2023-07-13T10:11:39;7.60;;;2.58;;
12024;SDS011;6073;53.230;10.444;2023-07-13T10:14:10;5.90;;;2.30;;
12024;SDS011;6073;53.230;10.444;2023-07-13T10:16:41;5.53;;;2.25;;
12024;SDS011;6073;53.230;10.444;2023-07-13T10:21:58;7.40;;;2.85;;
12024;SDS011;6073;53.230;10.444;2023-07-13T10:24:26;6.20;;;2.20;;
12024;SDS011;6073;53.230;10.444;2023-07-13T10:27:04;5.75;;;2.40;;
12024;SDS011;6073;53.230;10.444;2023-07-13T10:29:39;7.18;;;2.05;;
12024;SDS011;6073;53.230;10.444;2023-07-13T10:32:12;4.53;;;2.10;;
12024;SDS011;6073;53.230;10.444;2023-07-13T10:34:38;5.00;;;2.20;;
12024;SDS011;6073;53.230;10.444;2023-07-13T10:37:07;4.15;;;2.05;;
12024;SDS011;6073;53.230;10.444;2023-07-13T10:39:46;3.60;;;2.35;;
12024;SDS011;6073;53.230;10.444;2023-07-13T10:42:15;3.83;;;2.25;;
12024;SDS011;6073;53.230;10.444;2023-07-13T10:44:49;5.50;;;2.10;;
12024;SDS011;6073;53.230;10.444;2023-07-13T10:47:15;5.35;;;2.35;;
12024;SDS011;6073;53.230;10.444;2023-07-13T10:49:43;4.22;;;2.10;;
12024;SDS011;6073;53.230;10.444;2023-07-13T10:58:20;4.18;;;1.90;;
12024;SDS011;6073;53.230;10.444;2023-07-13T11:03:35;5.38;;;2.00;;
12024;SDS011;6073;53.230;10.444;2023-07-13T11:06:36;5.57;;;2.40;;
12024;SDS011;6073;53.230;10.444;2023-07-13T11:12:10;4.90;;;2.20;;
12024;SDS011;6073;53.230;10.444;2023-07-13T11:25:43;3.10;;;2.03;;
12024;SDS011;6073;53.230;10.444;2023-07-13T11:35:45;3.08;;;2.05;;
12024;SDS011;6073;53.230;10.444;2023-07-13T11:38:21;4.88;;;2.10;;
12024;SDS011;6073;53.230;10.444;2023-07-13T11:40:53;6.22;;;2.08;;
12024;SDS011;6073;53.230;10.444;2023-07-13T11:43:20;4.63;;;1.90;;
12024;SDS011;6073;53.230;10.444;2023-07-13T11:45:50;3.40;;;1.90;;
12024;SDS011;6073;53.230;10.444;2023-07-13T11:48:37;3.25;;;2.00;;
12024;SDS011;6073;53.230;10.444;2023-07-13T11:51:03;3.17;;;2.08;;
12024;SDS011;6073;53.230;10.444;2023-07-13T11:53:33;5.10;;;2.47;;
12024;SDS011;6073;53.230;10.444;2023-07-13T11:56:04;3.45;;;1.98;;
12024;SDS011;6073;53.230;10.444;2023-07-13T11:58:31;5.15;;;2.35;;
12024;SDS011;6073;53.230;10.444;2023-07-13T12:00:57;5.07;;;2.10;;
12024;SDS011;6073;53.230;10.444;2023-07-13T12:03:26;4.10;;;1.90;;
12024;SDS011;6073;53.230;10.444;2023-07-13T12:08:25;3.70;;;1.73;;
12024;SDS011;6073;53.230;10.444;2023-07-13T12:10:56;5.63;;;2.53;;
12024;SDS011;6073;53.230;10.444;2023-07-13T12:13:23;4.65;;;2.28;;
12024;SDS011;6073;53.230;10.444;2023-07-13T12:15:52;4.25;;;1.80;;
12024;SDS011;6073;53.230;10.444;2023-07-13T12:18:20;3.65;;;1.60;;
12024;SDS011;6073;53.230;10.444;2023-07-13T12:20:48;3.72;;;1.80;;
12024;SDS011;6073;53.230;10.444;2023-07-13T12:23:25;3.85;;;1.92;;
12024;SDS011;6073;53.230;10.444;2023-07-13T12:25:55;4.90;;;2.28;;
12024;SDS011;6073;53.230;10.444;2023-07-13T12:28:22;3.03;;;1.70;;
12024;SDS011;6073;53.230;10.444;2023-07-13T12:31:06;3.95;;;1.83;;
12024;SDS011;6073;53.230;10.444;2023-07-13T12:33:39;4.50;;;2.45;;
12024;SDS011;6073;53.230;10.444;2023-07-13T12:36:06;4.10;;;1.98;;
12024;SDS011;6073;53.230;10.444;2023-07-13T12:38:33;3.90;;;2.40;;
12024;SDS011;6073;53.230;10.444;2023-07-13T12:40:58;3.17;;;1.95;;
12024;SDS011;6073;53.230;10.444;2023-07-13T12:43:28;5.57;;;2.08;;
12024;SDS011;6073;53.230;10.444;2023-07-13T12:46:03;4.07;;;2.35;;
12024;SDS011;6073;53.230;10.444;2023-07-13T12:48:40;3.80;;;2.10;;
12024;SDS011;6073;53.230;10.444;2023-07-13T12:51:09;3.03;;;1.83;;
12024;SDS011;6073;53.230;10.444;2023-07-13T12:53:50;3.67;;;2.30;;
12024;SDS011;6073;53.230;10.444;2023-07-13T12:56:23;4.32;;;2.10;;
12024;SDS011;6073;53.230;10.444;2023-07-13T12:58:56;3.70;;;2.40;;
12024;SDS011;6073;53.230;10.444;2023-07-13T13:01:25;4.22;;;2.55;;
12024;SDS011;6073;53.230;10.444;2023-07-13T13:03:53;3.00;;;2.47;;
12024;SDS011;6073;53.230;10.444;2023-07-13T13:06:24;4.78;;;2.55;;
12024;SDS011;6073;53.230;10.444;2023-07-13T13:08:52;6.90;;;2.25;;
12024;SDS011;6073;53.230;10.444;2023-07-13T13:11:20;3.97;;;2.35;;
12024;SDS011;6073;53.230;10.444;2023-07-13T13:13:48;4.53;;;2.45;;
12024;SDS011;6073;53.230;10.444;2023-07-13T13:16:17;5.60;;;2.80;;
12024;SDS011;6073;53.230;10.444;2023-07-13T13:18:54;2.85;;;2.40;;
12024;SDS011;6073;53.230;10.444;2023-07-13T13:21:22;4.90;;;2.63;;
12024;SDS011;6073;53.230;10.444;2023-07-13T13:23:48;5.32;;;2.65;;
12024;SDS011;6073;53.230;10.444;2023-07-13T13:26:16;3.58;;;2.78;;
12024;SDS011;6073;53.230;10.444;2023-07-13T13:28:42;5.88;;;2.92;;
12024;SDS011;6073;53.230;10.444;2023-07-13T13:31:09;4.50;;;2.40;;
12024;SDS011;6073;53.230;10.444;2023-07-13T13:33:37;3.67;;;2.97;;
12024;SDS011;6073;53.230;10.444;2023-07-13T13:36:11;5.95;;;2.65;;
12024;SDS011;6073;53.230;10.444;2023-07-13T13:38:40;4.00;;;2.67;;
12024;SDS011;6073;53.230;10.444;2023-07-13T13:41:07;4.55;;;2.67;;
12024;SDS011;6073;53.230;10.444;2023-07-13T13:43:35;4.90;;;3.17;;
12024;SDS011;6073;53.230;10.444;2023-07-13T13:46:00;3.00;;;2.65;;
12024;SDS011;6073;53.230;10.444;2023-07-13T13:48:32;5.57;;;3.00;;
12024;SDS011;6073;53.230;10.444;2023-07-13T13:50:59;5.15;;;2.92;;
12024;SDS011;6073;53.230;10.444;2023-07-13T13:53:26;5.63;;;3.00;;
12024;SDS011;6073;53.230;10.444;2023-07-13T13:55:53;3.63;;;2.90;;
12024;SDS011;6073;53.230;10.444;2023-07-13T13:58:19;3.60;;;2.90;;
12024;SDS011;6073;53.230;10.444;2023-07-13T14:00:45;4.85;;;2.95;;
12024;SDS011;6073;53.230;10.444;2023-07-13T14:03:16;5.07;;;3.33;;
12024;SDS011;6073;53.230;10.444;2023-07-13T14:05:43;4.82;;;3.05;;
12024;SDS011;6073;53.230;10.444;2023-07-13T14:08:16;5.43;;;3.15;;
12024;SDS011;6073;53.230;10.444;2023-07-13T14:10:43;4.45;;;3.08;;
12024;SDS011;6073;53.230;10.444;2023-07-13T14:13:25;4.45;;;2.95;;
12024;SDS011;6073;53.230;10.444;2023-07-13T14:16:02;4.10;;;2.60;;
12024;SDS011;6073;53.230;10.444;2023-07-13T14:18:27;5.25;;;3.08;;
12024;SDS011;6073;53.230;10.444;2023-07-13T14:20:53;3.90;;;3.28;;
12024;SDS011;6073;53.230;10.444;2023-07-13T14:23:19;5.82;;;3.63;;
12024;SDS011;6073;53.230;10.444;2023-07-13T14:25:45;4.18;;;2.80;;
12024;SDS011;6073;53.230;10.444;2023-07-13T14:30:48;5.22;;;2.60;;
12024;SDS011;6073;53.230;10.444;2023-07-13T14:33:14;4.47;;;2.72;;
12024;SDS011;6073;53.230;10.444;2023-07-13T14:35:40;3.92;;;3.10;;
12024;SDS011;6073;53.230;10.444;2023-07-13T14:38:08;4.53;;;2.92;;
12024;SDS011;6073;53.230;10.444;2023-07-13T14:40:41;4.38;;;3.10;;
12024;SDS011;6073;53.230;10.444;2023-07-13T14:43:09;3.42;;;3.00;;
12024;SDS011;6073;53.230;10.444;2023-07-13T14:45:37;4.25;;;3.10;;
12024;SDS011;6073;53.230;10.444;2023-07-13T14:48:11;3.90;;;3.20;;
12024;SDS011;6073;53.230;10.444;2023-07-13T14:50:42;6.25;;;3.50;;
12024;SDS011;6073;53.230;10.444;2023-07-13T14:53:11;3.85;;;3.30;;
12024;SDS011;6073;53.230;10.444;2023-07-13T14:55:37;4.13;;;2.95;;
12024;SDS011;6073;53.230;10.444;2023-07-13T14:58:03;6.70;;;3.33;;
12024;SDS011;6073;53.230;10.444;2023-07-13T15:00:28;5.10;;;2.95;;
12024;SDS011;6073;53.230;10.444;2023-07-13T15:02:56;4.28;;;3.13;;
12024;SDS011;6073;53.230;10.444;2023-07-13T15:05:24;3.70;;;2.88;;
12024;SDS011;6073;53.230;10.444;2023-07-13T15:07:52;5.05;;;2.70;;
12024;SDS011;6073;53.230;10.444;2023-07-13T15:10:20;5.18;;;2.75;;
12024;SDS011;6073;53.230;10.444;2023-07-13T15:12:51;4.55;;;2.72;;
12024;SDS011;6073;53.230;10.444;2023-07-13T15:15:18;3.75;;;2.55;;
12024;SDS011;6073;53.230;10.444;2023-07-13T15:17:45;3.58;;;2.40;;
12024;SDS011;6073;53.230;10.444;2023-07-13T15:20:29;3.10;;;2.17;;
12024;SDS011;6073;53.230;10.444;2023-07-13T15:23:00;2.28;;;2.00;;
12024;SDS011;6073;53.230;10.444;2023-07-13T15:25:27;3.03;;;1.90;;
12024;SDS011;6073;53.230;10.444;2023-07-13T15:27:55;2.13;;;1.90;;
12024;SDS011;6073;53.230;10.444;2023-07-13T15:30:21;2.22;;;2.03;;
12024;SDS011;6073;53.230;10.444;2023-07-13T15:32:49;2.20;;;2.00;;
12024;SDS011;6073;53.230;10.444;2023-07-13T15:35:16;2.22;;;1.65;;
12024;SDS011;6073;53.230;10.444;2023-07-13T15:37:43;4.38;;;2.00;;
12024;SDS011;6073;53.230;10.444;2023-07-13T15:40:10;2.22;;;1.95;;
12024;SDS011;6073;53.230;10.444;2023-07-13T15:42:37;2.38;;;1.80;;
12024;SDS011;6073;53.230;10.444;2023-07-13T15:45:04;3.13;;;1.75;;
12024;SDS011;6073;53.230;10.444;2023-07-13T15:47:31;2.50;;;1.98;;
12024;SDS011;6073;53.230;10.444;2023-07-13T15:49:57;2.65;;;1.75;;